.
WxDataArchive / Data Records for 2013-11-11
2013-11-10 November 2013 2013-11-12

Data Records for Monday, 11 November 2013

Time	Temp	Chill	HIndex	Humid	Dewpt	 Wind 	HiWind	WindDir	Rain 	Barom 
-----	----	-----	------	-----	-----	------	------	-------	-----	----- 
00:00	32.4	32.4	32.4	89	29.5	0	0	---	0.00	30.276 
00:05	32.9	32.9	32.9	89	30.0	0	0	---	0.00	30.276 
00:10	33.2	33.2	33.2	88	30.0	0	0	---	0.00	30.276 
00:15	33.5	33.5	33.5	88	30.3	0	0	---	0.00	30.265 
00:20	33.7	33.7	33.7	88	30.5	0	0	---	0.00	30.265 
00:25	33.8	33.8	33.8	88	30.6	0	0	---	0.00	30.265 
00:30	34.1	34.1	34.1	87	30.6	0	0	---	0.00	30.262 
00:35	34.4	34.4	34.4	87	30.9	0	0	---	0.00	30.262 
00:40	34.7	34.7	34.7	86	30.9	0	0	---	0.00	30.262 
00:45	35.0	35.0	35.0	85	31.0	0	0	---	0.00	30.259 
00:50	35.2	35.2	35.2	84	30.9	0	0	---	0.00	30.259 
00:55	35.5	35.5	35.5	84	31.2	0	0	---	0.00	30.259 
01:00	35.6	35.6	35.6	83	31.0	0	0	---	0.00	30.259 
01:05	35.8	35.8	35.8	83	31.2	0	0	---	0.00	30.259 
01:10	35.9	35.9	35.9	82	31.0	0	0	---	0.00	30.259 
01:15	35.9	35.9	35.9	82	31.0	0	0	---	0.00	30.254 
01:20	36.0	36.0	36.0	81	30.7	0	0	---	0.00	30.254 
01:25	36.0	36.0	36.0	81	30.7	0	0	---	0.00	30.254 
01:30	36.2	36.2	36.2	81	30.9	0	0	---	0.00	30.250 
01:35	36.2	36.2	36.2	81	30.9	0	0	---	0.00	30.250 
01:40	36.3	36.3	36.3	81	31.0	0	0	---	0.00	30.250 
01:45	36.3	36.3	36.3	81	31.0	0	0	---	0.00	30.243 
01:50	36.5	36.5	36.5	81	31.2	0	0	---	0.00	30.243 
01:55	36.6	36.6	36.6	81	31.3	0	0	---	0.00	30.243 
02:00	36.6	36.6	36.6	80	31.0	0	0	---	0.00	30.243 
02:05	36.9	36.9	36.9	79	31.0	0	1	292	0.00	30.243 
02:10	37.0	37.0	37.0	78	30.8	0	0	---	0.00	30.243 
02:15	37.2	37.2	37.2	78	31.0	0	1	292	0.00	30.235 
02:20	37.3	37.3	37.3	77	30.8	0	0	---	0.00	30.235 
02:25	37.5	37.5	37.5	77	31.0	0	0	---	0.00	30.235 
02:30	37.6	37.6	37.6	77	31.1	0	0	---	0.00	30.229 
02:35	37.6	37.6	37.6	76	30.7	0	1	292	0.00	30.229 
02:40	37.8	37.8	37.8	76	30.9	0	1	292	0.00	30.229 
02:45	37.8	37.8	37.8	76	30.9	0	1	292	0.00	30.227 
02:50	37.9	37.9	37.9	76	31.0	0	1	292	0.00	30.227 
02:55	37.9	37.9	37.9	76	31.0	0	0	---	0.00	30.227 
03:00	37.9	37.9	37.9	76	31.0	0	1	292	0.00	30.216 
03:05	38.0	38.0	38.0	76	31.1	0	0	---	0.00	30.216 
03:10	38.0	38.0	38.0	76	31.1	0	1	292	0.00	30.216 
03:15	38.0	38.0	38.0	76	31.1	0	1	292	0.00	30.210 
03:20	38.2	38.2	38.2	76	31.3	0	1	292	0.00	30.210 
03:25	38.2	38.2	38.2	75	31.0	0	1	292	0.00	30.210 
03:30	38.3	38.3	38.3	75	31.1	0	2	292	0.00	30.206 
03:35	38.5	38.5	38.5	75	31.3	0	3	292	0.00	30.206 
03:40	38.6	38.6	38.6	74	31.0	0	1	292	0.00	30.206 
03:45	38.8	38.8	38.8	74	31.2	0	3	292	0.00	30.206 
03:50	38.9	38.9	38.9	73	31.0	0	1	292	0.00	30.206 
03:55	39.1	39.1	39.1	73	31.2	0	1	292	0.00	30.206 
04:00	39.2	39.2	39.2	73	31.3	0	2	292	0.00	30.197 
04:05	39.2	39.2	39.2	73	31.3	0	2	292	0.00	30.197 
04:10	39.3	39.3	39.3	73	31.4	0	1	292	0.00	30.197 
04:15	39.5	39.5	39.5	73	31.6	0	2	292	0.00	30.199 
04:20	39.5	39.5	39.5	72	31.2	0	2	292	0.00	30.199 
04:25	39.5	39.5	39.5	73	31.6	0	1	292	0.00	30.199 
04:30	39.6	39.6	39.6	72	31.3	0	2	292	0.00	30.196 
04:35	39.6	39.6	39.6	72	31.3	0	4	248	0.00	30.196 
04:40	39.8	39.8	39.8	72	31.5	0	3	248	0.00	30.196 
04:45	39.8	39.8	39.8	72	31.5	0	2	248	0.00	30.186 
04:50	39.8	39.8	39.8	73	31.9	0	2	248	0.00	30.186 
04:55	39.6	39.6	39.6	73	31.7	0	1	248	0.00	30.186 
05:00	39.6	39.6	39.6	73	31.7	0	3	248	0.00	30.177 
05:05	39.6	39.6	39.6	73	31.7	0	3	248	0.00	30.177 
05:10	39.8	39.8	39.8	73	31.9	0	2	248	0.00	30.177 
05:15	39.8	39.8	39.8	73	31.9	0	1	248	0.00	30.175 
05:20	39.8	39.8	39.8	73	31.9	0	3	248	0.00	30.175 
05:25	39.8	39.8	39.8	73	31.9	0	2	248	0.00	30.175 
05:30	39.8	39.8	39.8	73	31.9	0	2	248	0.00	30.176 
05:35	39.9	39.9	39.9	73	32.0	0	3	248	0.00	30.176 
05:40	39.9	39.9	39.9	72	31.6	0	3	248	0.00	30.176 
05:45	40.1	40.1	40.1	72	31.8	1	3	248	0.00	30.172 
05:50	40.2	40.2	40.2	72	31.9	0	2	248	0.00	30.172 
05:55	40.3	40.3	40.3	72	32.0	1	4	248	0.00	30.172 
06:00	40.3	40.3	40.3	71	31.7	1	3	248	0.00	30.166 
06:05	40.5	40.5	40.5	71	31.8	1	3	248	0.00	30.166 
06:10	40.5	40.5	40.5	71	31.8	1	4	248	0.00	30.166 
06:15	40.5	40.5	40.5	71	31.8	1	3	248	0.00	30.168 
06:20	40.5	40.5	40.5	71	31.8	0	3	248	0.00	30.168 
06:25	40.5	40.5	40.5	71	31.8	0	2	248	0.00	30.168 
06:30	40.3	40.3	40.3	72	32.0	1	3	248	0.00	30.154 
06:35	40.3	40.3	40.3	71	31.7	1	4	248	0.00	30.154 
06:40	40.5	40.5	40.5	71	31.8	1	5	270	0.00	30.154 
06:45	40.5	40.5	40.5	71	31.8	1	4	270	0.00	30.154 
06:50	40.5	40.5	40.5	71	31.8	1	6	315	0.00	30.154 
06:55	40.5	40.5	40.5	71	31.8	1	4	248	0.00	30.154 
07:00	40.6	40.6	40.6	70	31.6	1	4	248	0.00	30.149 
07:05	40.6	40.6	40.6	70	31.6	1	5	248	0.00	30.149 
07:10	40.6	40.6	40.6	70	31.6	1	6	248	0.00	30.149 
07:15	40.6	40.6	40.6	70	31.6	1	4	248	0.00	30.151 
07:20	40.8	40.8	40.8	70	31.8	1	5	225	0.00	30.151 
07:25	40.8	40.8	40.8	70	31.8	1	5	248	0.00	30.151 
07:30	40.9	40.9	40.9	69	31.5	1	6	248	0.00	30.152 
07:35	40.9	40.9	40.9	69	31.5	1	4	270	0.00	30.152 
07:40	41.1	41.1	41.1	69	31.7	1	5	248	0.00	30.152 
07:45	41.1	41.1	41.1	69	31.7	1	5	248	0.00	30.152 
07:50	41.1	41.1	41.1	69	31.7	0	3	248	0.00	30.152 
07:55	41.2	41.2	41.2	69	31.8	1	5	248	0.00	30.152 
08:00	41.2	41.2	41.2	69	31.8	1	4	248	0.00	30.150 
08:05	41.3	41.3	41.3	68	31.5	1	5	248	0.00	30.150 
08:10	41.3	41.3	41.3	68	31.5	1	4	248	0.00	30.150 
08:15	41.3	41.3	41.3	68	31.5	1	4	248	0.00	30.144 
08:20	41.5	41.5	41.5	68	31.7	1	3	248	0.00	30.144 
08:25	41.5	41.5	41.5	68	31.7	1	4	248	0.00	30.144 
08:30	41.6	41.6	41.6	68	31.8	2	6	248	0.00	30.141 
08:35	41.8	41.8	41.8	67	31.7	1	4	248	0.00	30.141 
08:40	42.1	42.1	42.1	66	31.6	2	6	248	0.00	30.141 
08:45	42.2	42.2	42.2	66	31.7	1	4	248	0.00	30.150 
08:50	42.5	42.5	42.5	66	32.0	1	4	248	0.00	30.150 
08:55	42.6	42.6	42.6	66	32.0	1	6	248	0.00	30.150 
09:00	42.8	42.8	42.8	65	31.9	1	5	270	0.00	30.135 
09:05	42.9	42.9	42.9	64	31.6	2	6	248	0.00	30.135 
09:10	43.1	43.1	43.1	64	31.8	2	4	248	0.00	30.135 
09:15	43.1	43.1	43.1	64	31.8	1	4	248	0.00	30.134 
09:20	43.3	43.3	43.3	63	31.6	1	4	248	0.00	30.134 
09:25	43.5	43.5	43.5	63	31.8	1	5	248	0.00	30.134 
09:30	43.8	43.8	43.8	62	31.6	2	5	248	0.00	30.124 
09:35	43.9	43.9	43.9	62	31.7	2	7	248	0.00	30.124 
09:40	44.1	44.1	44.1	62	31.9	2	6	270	0.00	30.124 
09:45	44.2	44.2	44.2	62	32.0	1	3	248	0.00	30.122 
09:50	44.3	44.3	44.3	61	31.7	2	4	248	0.00	30.122 
09:55	44.5	44.5	44.5	61	31.9	1	5	248	0.00	30.122 
10:00	44.5	44.5	44.5	61	31.9	1	4	270	0.00	30.119 
10:05	44.6	44.6	44.6	60	31.6	1	6	248	0.00	30.119 
10:10	44.6	44.6	44.6	60	31.6	1	4	248	0.00	30.119 
10:15	44.8	44.8	44.8	60	31.8	1	4	248	0.00	30.123 
10:20	44.8	44.8	44.8	59	31.4	2	5	248	0.00	30.123 
10:25	44.9	44.9	44.9	60	31.9	1	4	248	0.00	30.123 
10:30	45.1	45.1	45.1	59	31.6	1	5	248	0.00	30.124 
10:35	45.1	45.1	45.1	59	31.6	1	4	248	0.00	30.124 
10:40	45.2	45.2	45.2	59	31.7	1	3	248	0.00	30.124 
10:45	45.5	45.5	45.5	58	31.6	1	5	248	0.00	30.120 
10:50	45.7	45.7	45.7	58	31.8	1	5	248	0.00	30.120 
10:55	45.7	45.7	45.7	58	31.8	1	7	248	0.00	30.120 
11:00	45.8	45.8	45.8	57	31.4	2	5	270	0.00	30.119 
11:05	46.0	46.0	46.0	58	32.1	1	4	270	0.00	30.119 
11:10	46.1	46.1	46.1	57	31.7	1	4	248	0.00	30.119 
11:15	46.2	46.2	46.2	57	31.8	1	6	248	0.00	30.118 
11:20	46.4	46.4	46.4	57	32.0	1	5	248	0.00	30.118 
11:25	46.4	46.4	46.4	57	32.0	1	6	270	0.00	30.118 
11:30	46.5	46.5	46.5	57	32.1	1	4	270	0.00	30.110 
11:35	46.7	46.7	46.7	58	32.7	1	6	270	0.00	30.110 
11:40	46.8	46.8	46.8	57	32.4	1	5	270	0.00	30.110 
11:45	47.0	47.0	47.0	57	32.6	1	5	248	0.00	30.105 
11:50	47.1	47.1	47.1	57	32.7	1	5	248	0.00	30.105 
11:55	47.4	47.4	47.4	57	32.9	1	5	248	0.00	30.105 
12:00	47.6	47.6	47.6	56	32.7	2	5	270	0.00	30.098 
12:05	47.6	47.6	47.6	56	32.7	1	5	248	0.00	30.098 
12:10	47.6	47.6	47.6	56	32.7	1	4	248	0.00	30.098 
12:15	47.7	47.7	47.7	55	32.3	2	6	248	0.00	30.083 
12:20	47.9	47.9	47.9	56	33.0	1	5	248	0.00	30.083 
12:25	48.0	48.0	48.0	57	33.5	1	5	248	0.00	30.083 
12:30	48.0	48.0	48.0	55	32.6	2	5	248	0.00	30.081 
12:35	48.2	48.2	48.2	56	33.2	1	4	248	0.00	30.081 
12:40	48.3	48.3	48.3	55	32.9	2	5	248	0.00	30.081 
12:45	48.3	48.3	48.3	54	32.4	2	5	248	0.00	30.066 
12:50	48.3	48.3	48.3	55	32.9	2	6	248	0.00	30.066 
12:55	48.3	48.3	48.3	55	32.9	2	6	270	0.00	30.066 
13:00	48.3	48.3	48.3	55	32.9	2	5	270	0.00	30.065 
13:05	48.3	48.3	48.3	55	32.9	2	5	248	0.00	30.065 
13:10	48.5	48.5	48.5	55	33.1	2	4	248	0.00	30.065 
13:15	48.5	48.5	48.5	55	33.1	2	5	248	0.00	30.055 
13:20	48.5	48.5	48.5	55	33.1	1	5	248	0.00	30.055 
13:25	48.5	48.5	48.5	56	33.5	0	2	248	0.00	30.055 
13:30	48.5	48.5	48.5	55	33.1	2	6	270	0.00	30.053 
13:35	48.3	48.3	48.3	55	32.9	2	6	270	0.00	30.053 
13:40	48.3	48.3	48.3	55	32.9	2	5	292	0.00	30.053 
13:45	48.2	48.2	48.2	55	32.8	1	4	270	0.00	30.055 
13:50	48.2	48.2	48.2	56	33.2	1	3	270	0.00	30.055 
13:55	48.2	48.2	48.2	56	33.2	1	3	270	0.00	30.055 
14:00	48.2	48.2	48.2	56	33.2	1	4	270	0.00	30.056 
14:05	48.2	48.2	48.2	56	33.2	1	4	270	0.00	30.056 
14:10	48.3	48.3	48.3	56	33.3	1	3	270	0.00	30.056 
14:15	48.3	48.3	48.3	56	33.3	1	2	270	0.00	30.050 
14:20	48.3	48.3	48.3	56	33.3	1	4	270	0.00	30.050 
14:25	48.2	48.2	48.2	56	33.2	2	4	270	0.00	30.050 
14:30	47.9	47.9	47.9	57	33.4	2	5	270	0.00	30.049 
14:35	47.6	47.6	47.6	58	33.6	1	5	270	0.00	30.049 
14:40	47.4	47.4	47.4	58	33.4	2	6	292	0.00	30.049 
14:45	47.0	47.0	47.0	60	33.8	2	5	292	0.00	30.053 
14:50	46.8	46.8	46.8	60	33.7	1	4	292	0.00	30.053 
14:55	46.7	46.7	46.7	60	33.6	2	4	292	0.00	30.053 
15:00	46.5	46.5	46.5	61	33.8	1	3	292	0.00	30.055 
15:05	46.4	46.4	46.4	63	34.5	1	2	292	0.00	30.055 
15:10	46.2	46.2	46.2	65	35.1	1	3	292	0.00	30.055 
15:15	45.8	45.8	45.8	68	35.8	1	5	292	0.00	30.068 
15:20	45.4	45.4	45.4	71	36.6	2	4	315	0.00	30.068 
15:25	44.6	44.6	44.6	76	37.5	1	4	315	0.00	30.068 
15:30	43.9	43.9	43.9	79	37.8	2	5	315	0.00	30.075 
15:35	43.5	43.5	43.5	81	38.1	2	6	315	0.00	30.075 
15:40	43.2	43.2	43.2	82	38.1	1	4	315	0.00	30.075 
15:45	42.9	42.9	42.9	84	38.4	1	2	315	0.00	30.079 
15:50	42.8	42.8	42.8	85	38.6	1	3	315	0.00	30.079 
15:55	42.6	42.6	42.6	85	38.4	2	4	315	0.00	30.079 
16:00	42.2	42.2	42.2	86	38.3	1	4	292	0.00	30.088 
16:05	42.1	42.1	42.1	87	38.5	1	4	315	0.00	30.088 
16:10	41.9	41.9	41.9	87	38.3	1	3	315	0.00	30.088 
16:15	41.8	41.8	41.8	88	38.5	0	2	315	0.01	30.091 
16:20	41.8	41.8	41.8	88	38.5	0	2	315	0.00	30.091 
16:25	41.5	41.5	41.5	88	38.2	1	4	315	0.00	30.091 
16:30	41.2	41.2	41.2	88	37.9	1	4	338	0.00	30.101 
16:35	41.1	41.1	41.1	89	38.1	1	5	338	0.00	30.101 
16:40	40.9	40.9	40.9	89	37.9	2	5	292	0.00	30.101 
16:45	40.6	40.6	40.6	89	37.6	1	3	292	0.00	30.103 
16:50	40.6	40.6	40.6	89	37.6	0	3	292	0.00	30.103 
16:55	40.6	40.6	40.6	89	37.6	1	4	292	0.01	30.103 
17:00	40.5	40.5	40.5	89	37.5	1	2	292	0.00	30.104 
17:05	40.5	40.5	40.5	89	37.5	0	2	292	0.00	30.104 
17:10	40.5	40.5	40.5	89	37.5	2	5	292	0.00	30.104 
17:15	40.1	40.1	40.1	89	37.1	3	5	315	0.01	30.116 
17:20	39.6	39.6	39.6	88	36.3	3	7	315	0.00	30.116 
17:25	39.3	39.3	39.3	88	36.0	2	5	315	0.00	30.116 
17:30	39.1	39.1	39.1	88	35.9	2	5	292	0.00	30.123 
17:35	38.9	38.9	38.9	89	35.9	1	4	45	0.00	30.123 
17:40	38.6	38.6	38.6	89	35.6	0	5	315	0.01	30.123 
17:45	38.3	38.3	38.3	89	35.3	1	3	315	0.00	30.137 
17:50	38.2	38.2	38.2	89	35.2	0	3	292	0.01	30.137 
17:55	37.8	37.8	37.8	89	34.9	1	4	270	0.00	30.137 
18:00	37.5	37.5	37.5	90	34.8	1	3	270	0.00	30.151 
18:05	37.3	37.3	37.3	90	34.6	1	3	292	0.00	30.151 
18:10	37.2	37.2	37.2	90	34.5	1	4	315	0.01	30.151 
18:15	36.9	36.9	36.9	90	34.2	0	4	315	0.00	30.156 
18:20	36.8	36.8	36.8	90	34.1	1	5	0	0.00	30.156 
18:25	36.5	36.5	36.5	90	33.9	1	4	0	0.01	30.156 
18:30	36.3	36.3	36.3	90	33.7	1	4	315	0.00	30.170 
18:35	36.2	36.2	36.2	91	33.8	1	4	315	0.00	30.170 
18:40	35.9	35.9	35.9	91	33.5	2	6	292	0.00	30.170 
18:45	35.6	35.6	35.6	90	33.0	2	6	315	0.01	30.183 
18:50	35.3	35.3	35.3	90	32.7	1	4	338	0.00	30.183 
18:55	35.0	35.0	35.0	91	32.6	1	3	315	0.00	30.183 
19:00	34.7	34.7	34.7	91	32.3	1	3	338	0.00	30.187 
19:05	34.6	34.6	34.6	91	32.2	0	1	338	0.00	30.187 
19:10	34.3	34.3	34.3	91	32.0	0	2	338	0.01	30.187 
19:15	34.1	34.1	34.1	91	31.8	0	3	338	0.00	30.200 
19:20	33.8	33.8	33.8	91	31.5	0	1	338	0.00	30.200 
19:25	33.5	33.5	33.5	91	31.2	0	4	338	0.00	30.200 
19:30	33.2	33.2	33.2	91	30.9	1	3	338	0.00	30.209 
19:35	32.9	32.9	32.9	91	30.6	1	5	338	0.00	30.209 
19:40	32.8	32.8	32.8	92	30.7	1	4	315	0.00	30.209 
19:45	32.7	32.7	32.7	92	30.6	1	4	338	0.00	30.219 
19:50	32.7	32.7	32.7	92	30.6	1	5	338	0.00	30.219 
19:55	32.5	32.5	32.5	92	30.4	0	2	0	0.00	30.219 
20:00	32.5	32.5	32.5	92	30.4	1	4	0	0.00	30.231 
20:05	32.5	32.5	32.5	92	30.4	1	3	338	0.00	30.231 
20:10	32.2	32.2	32.2	92	30.1	1	4	338	0.00	30.231 
20:15	32.2	32.2	32.2	92	30.1	0	3	315	0.00	30.237 
20:20	32.1	32.1	32.1	92	30.0	1	4	315	0.00	30.237 
20:25	31.9	31.9	31.9	92	29.8	1	5	315	0.00	30.237 
20:30	31.9	31.9	31.9	92	29.8	1	3	315	0.00	30.249 
20:35	31.8	31.8	31.8	92	29.7	1	5	315	0.00	30.249 
20:40	31.5	31.5	31.5	92	29.4	1	3	338	0.00	30.249 
20:45	31.0	31.0	31.0	92	29.0	2	6	338	0.00	30.254 
20:50	30.9	30.9	30.9	92	28.9	2	6	315	0.00	30.254 
20:55	30.7	30.7	30.7	92	28.7	2	5	315	0.00	30.254 
21:00	30.4	30.4	30.4	92	28.4	1	4	315	0.00	30.268 
21:05	30.3	30.3	30.3	92	28.3	2	5	338	0.00	30.268 
21:10	30.1	30.1	30.1	92	28.1	1	5	315	0.00	30.268 
21:15	30.0	30.0	30.0	92	28.0	2	5	315	0.00	30.277 
21:20	29.1	29.1	29.1	91	26.8	3	9	338	0.00	30.277 
21:25	28.7	28.7	28.7	91	26.4	2	4	315	0.00	30.277 
21:30	28.4	28.4	28.4	90	25.8	2	6	0	0.00	30.290 
21:35	28.2	28.2	28.2	90	25.7	1	4	338	0.00	30.290 
21:40	28.2	28.2	28.2	90	25.7	1	3	315	0.00	30.290 
21:45	28.2	28.2	28.2	89	25.4	1	3	315	0.00	30.298 
21:50	28.2	28.2	28.2	89	25.4	0	2	315	0.00	30.298 
21:55	28.4	28.4	28.4	89	25.6	0	3	315	0.00	30.298 
22:00	28.4	28.4	28.4	89	25.6	0	2	315	0.00	30.304 
22:05	28.4	28.4	28.4	88	25.3	1	4	315	0.00	30.304 
22:10	28.4	28.4	28.4	88	25.3	0	3	292	0.00	30.304 
22:15	28.5	28.5	28.5	88	25.4	0	3	315	0.00	30.313 
22:20	28.5	28.5	28.5	87	25.1	1	4	338	0.00	30.313 
22:25	28.4	28.4	28.4	85	24.5	1	5	315	0.00	30.313 
22:30	28.4	28.4	28.4	83	23.9	1	5	338	0.00	30.316 
22:35	28.4	28.4	28.4	82	23.6	1	6	338	0.00	30.316 
22:40	28.4	28.4	28.4	81	23.3	2	6	338	0.00	30.316 
22:45	28.4	28.4	28.4	80	23.0	1	3	338	0.00	30.330 
22:50	28.4	28.4	28.4	80	23.0	0	3	315	0.00	30.330 
22:55	28.4	28.4	28.4	79	22.7	1	3	315	0.00	30.330 
23:00	28.4	28.4	28.4	79	22.7	1	3	315	0.00	30.332 
23:05	28.2	28.2	28.2	78	22.2	0	2	315	0.00	30.332 
23:10	28.4	28.4	28.4	78	22.4	1	3	315	0.00	30.332 
23:15	28.2	28.2	28.2	77	21.9	0	2	315	0.00	30.332 
23:20	28.2	28.2	28.2	77	21.9	1	4	292	0.00	30.332 
23:25	28.2	28.2	28.2	76	21.6	1	4	0	0.00	30.332 
23:30	28.2	28.2	28.2	75	21.3	1	3	0	0.00	30.342 
23:35	28.2	28.2	28.2	75	21.3	1	3	0	0.00	30.342 
23:40	28.2	28.2	28.2	75	21.3	0	3	338	0.00	30.342 
23:45	28.1	28.1	28.1	74	20.9	1	5	315	0.00	30.347 
23:50	28.1	28.1	28.1	73	20.6	1	4	292	0.00	30.347 
23:55	28.1	28.1	28.1	73	20.6	0	2	292	0.00	30.347 

CoCoRaHS
IN-AL-39
A2 Web Hosting
Creative Commons License
GoDaddy
search engine by freefind advanced

loaded 2018-11-16 01:21:46 • last modified 2010-11-18 10:43:29
Privacy PolicyDisclaimer
• wx.awcolley.com is powered by PmWiki v.2002016 •
• all content (unless otherwise noted) © 2018 A W Colley